sensor_id;sensor_type;location;lat;lon;timestamp;pressure;altitude;pressure_sealevel;temperature;humidity
70488;BME280;57976;48.174;16.370;2023-05-20T01:04:31;99760.72;;;13.60;100.00
70488;BME280;57976;48.174;16.370;2023-05-20T01:06:37;99759.30;;;13.56;100.00
70488;BME280;57976;48.174;16.370;2023-05-20T01:08:41;99757.10;;;13.55;100.00
70488;BME280;57976;48.174;16.370;2023-05-20T01:10:48;99754.42;;;13.54;100.00
70488;BME280;57976;48.174;16.370;2023-05-20T01:12:57;99756.48;;;13.50;100.00
70488;BME280;57976;48.174;16.370;2023-05-20T01:15:08;99756.59;;;13.46;100.00
70488;BME280;57976;48.174;16.370;2023-05-20T01:17:14;99750.33;;;13.42;100.00
70488;BME280;57976;48.174;16.370;2023-05-20T01:19:34;99751.27;;;13.42;100.00
70488;BME280;57976;48.174;16.370;2023-05-20T01:21:40;99745.77;;;13.40;100.00
70488;BME280;57976;48.174;16.370;2023-05-20T01:23:46;99747.00;;;13.38;100.00
70488;BME280;57976;48.174;16.370;2023-05-20T01:25:51;99745.90;;;13.36;100.00
70488;BME280;57976;48.174;16.370;2023-05-20T01:27:58;99747.96;;;13.31;100.00
70488;BME280;57976;48.174;16.370;2023-05-20T01:30:03;99753.77;;;13.29;100.00
70488;BME280;57976;48.174;16.370;2023-05-20T01:32:14;99752.08;;;13.25;100.00
70488;BME280;57976;48.174;16.370;2023-05-20T01:34:19;99749.33;;;13.21;100.00
70488;BME280;57976;48.174;16.370;2023-05-20T01:36:25;99747.86;;;13.19;100.00
70488;BME280;57976;48.174;16.370;2023-05-20T01:38:32;99747.39;;;13.17;100.00
70488;BME280;57976;48.174;16.370;2023-05-20T01:40:38;99743.20;;;13.14;100.00
70488;BME280;57976;48.174;16.370;2023-05-20T01:42:43;99743.33;;;13.11;100.00
70488;BME280;57976;48.174;16.370;2023-05-20T01:44:48;99751.65;;;13.10;100.00
70488;BME280;57976;48.174;16.370;2023-05-20T01:46:55;99751.60;;;13.08;100.00
70488;BME280;57976;48.174;16.370;2023-05-20T01:49:00;99753.17;;;13.07;100.00
70488;BME280;57976;48.174;16.370;2023-05-20T01:51:05;99752.64;;;13.07;100.00
70488;BME280;57976;48.174;16.370;2023-05-20T01:53:10;99755.80;;;13.05;100.00
70488;BME280;57976;48.174;16.370;2023-05-20T01:55:15;99755.81;;;13.03;100.00
70488;BME280;57976;48.174;16.370;2023-05-20T01:57:21;99752.23;;;13.00;100.00
70488;BME280;57976;48.174;16.370;2023-05-20T01:59:27;99749.76;;;12.97;100.00
70488;BME280;57976;48.174;16.370;2023-05-20T02:01:32;99748.77;;;12.96;100.00
70488;BME280;57976;48.174;16.370;2023-05-20T02:03:36;99750.59;;;12.93;100.00
70488;BME280;57976;48.174;16.370;2023-05-20T02:05:41;99747.21;;;12.88;100.00
70488;BME280;57976;48.174;16.370;2023-05-20T02:07:46;99748.19;;;12.85;100.00
70488;BME280;57976;48.174;16.370;2023-05-20T02:09:51;99750.13;;;12.81;100.00
70488;BME280;57976;48.174;16.370;2023-05-20T02:11:58;99753.09;;;12.77;100.00
70488;BME280;57976;48.174;16.370;2023-05-20T02:14:03;99753.20;;;12.75;100.00
70488;BME280;57976;48.174;16.370;2023-05-20T02:16:08;99750.95;;;12.74;100.00
70488;BME280;57976;48.174;16.370;2023-05-20T02:18:16;99751.31;;;12.71;100.00
70488;BME280;57976;48.174;16.370;2023-05-20T02:20:20;99750.44;;;12.69;100.00
70488;BME280;57976;48.174;16.370;2023-05-20T02:22:26;99751.88;;;12.65;100.00
70488;BME280;57976;48.174;16.370;2023-05-20T02:24:30;99754.22;;;12.64;100.00
70488;BME280;57976;48.174;16.370;2023-05-20T02:26:35;99756.34;;;12.61;100.00
70488;BME280;57976;48.174;16.370;2023-05-20T02:28:42;99750.73;;;12.59;100.00
70488;BME280;57976;48.174;16.370;2023-05-20T02:30:47;99748.86;;;12.57;100.00
70488;BME280;57976;48.174;16.370;2023-05-20T02:32:51;99747.30;;;12.55;100.00
70488;BME280;57976;48.174;16.370;2023-05-20T02:34:56;99748.81;;;12.53;100.00
70488;BME280;57976;48.174;16.370;2023-05-20T02:37:01;99749.34;;;12.51;100.00
70488;BME280;57976;48.174;16.370;2023-05-20T02:39:06;99748.02;;;12.48;100.00
70488;BME280;57976;48.174;16.370;2023-05-20T02:41:11;99751.72;;;12.48;100.00
70488;BME280;57976;48.174;16.370;2023-05-20T02:43:16;99755.59;;;12.47;100.00
70488;BME280;57976;48.174;16.370;2023-05-20T02:45:21;99751.34;;;12.44;100.00
70488;BME280;57976;48.174;16.370;2023-05-20T02:47:27;99750.26;;;12.41;100.00
70488;BME280;57976;48.174;16.370;2023-05-20T02:49:32;99745.21;;;12.39;100.00
70488;BME280;57976;48.174;16.370;2023-05-20T02:51:38;99750.80;;;12.39;100.00
70488;BME280;57976;48.174;16.370;2023-05-20T02:53:43;99751.70;;;12.37;100.00
70488;BME280;57976;48.174;16.370;2023-05-20T02:55:48;99751.02;;;12.37;100.00
70488;BME280;57976;48.174;16.370;2023-05-20T02:57:56;99752.56;;;12.36;100.00
70488;BME280;57976;48.174;16.370;2023-05-20T03:00:02;99758.35;;;12.37;100.00
70488;BME280;57976;48.174;16.370;2023-05-20T03:02:07;99759.10;;;12.36;100.00
70488;BME280;57976;48.174;16.370;2023-05-20T03:04:14;99753.80;;;12.36;100.00
70488;BME280;57976;48.174;16.370;2023-05-20T03:06:19;99752.67;;;12.35;100.00
70488;BME280;57976;48.174;16.370;2023-05-20T03:08:26;99755.27;;;12.33;100.00
70488;BME280;57976;48.174;16.370;2023-05-20T03:10:31;99754.52;;;12.31;100.00
70488;BME280;57976;48.174;16.370;2023-05-20T03:12:37;99751.87;;;12.26;100.00
70488;BME280;57976;48.174;16.370;2023-05-20T03:14:42;99749.86;;;12.23;100.00
70488;BME280;57976;48.174;16.370;2023-05-20T03:16:46;99753.13;;;12.21;100.00
70488;BME280;57976;48.174;16.370;2023-05-20T03:18:51;99756.95;;;12.19;100.00
70488;BME280;57976;48.174;16.370;2023-05-20T03:20:56;99755.91;;;12.20;100.00
70488;BME280;57976;48.174;16.370;2023-05-20T03:23:02;99758.23;;;12.22;100.00
70488;BME280;57976;48.174;16.370;2023-05-20T03:25:08;99754.08;;;12.22;100.00
70488;BME280;57976;48.174;16.370;2023-05-20T03:27:13;99756.71;;;12.24;100.00
70488;BME280;57976;48.174;16.370;2023-05-20T03:29:18;99757.95;;;12.25;100.00
70488;BME280;57976;48.174;16.370;2023-05-20T03:31:23;99757.02;;;12.25;100.00
70488;BME280;57976;48.174;16.370;2023-05-20T03:33:28;99759.30;;;12.26;100.00
70488;BME280;57976;48.174;16.370;2023-05-20T03:35:36;99763.50;;;12.26;100.00
70488;BME280;57976;48.174;16.370;2023-05-20T03:37:41;99763.95;;;12.25;100.00
70488;BME280;57976;48.174;16.370;2023-05-20T03:39:46;99763.73;;;12.26;100.00
70488;BME280;57976;48.174;16.370;2023-05-20T03:41:51;99768.56;;;12.27;100.00
70488;BME280;57976;48.174;16.370;2023-05-20T03:43:56;99768.08;;;12.28;100.00
70488;BME280;57976;48.174;16.370;2023-05-20T03:46:01;99770.05;;;12.32;100.00
70488;BME280;57976;48.174;16.370;2023-05-20T03:48:07;99770.48;;;12.34;100.00
70488;BME280;57976;48.174;16.370;2023-05-20T03:50:12;99775.65;;;12.35;100.00
70488;BME280;57976;48.174;16.370;2023-05-20T03:52:18;99774.30;;;12.36;100.00
70488;BME280;57976;48.174;16.370;2023-05-20T03:54:22;99775.47;;;12.38;100.00
70488;BME280;57976;48.174;16.370;2023-05-20T03:56:31;99776.98;;;12.40;100.00
70488;BME280;57976;48.174;16.370;2023-05-20T03:58:36;99775.06;;;12.42;100.00
70488;BME280;57976;48.174;16.370;2023-05-20T04:00:42;99771.11;;;12.42;100.00
70488;BME280;57976;48.174;16.370;2023-05-20T04:02:47;99766.27;;;12.40;100.00
70488;BME280;57976;48.174;16.370;2023-05-20T04:04:53;99763.95;;;12.41;100.00
70488;BME280;57976;48.174;16.370;2023-05-20T04:06:59;99759.23;;;12.43;100.00
70488;BME280;57976;48.174;16.370;2023-05-20T04:09:04;99756.48;;;12.45;100.00
70488;BME280;57976;48.174;16.370;2023-05-20T04:11:08;99758.02;;;12.46;100.00
70488;BME280;57976;48.174;16.370;2023-05-20T04:13:13;99759.04;;;12.46;100.00
70488;BME280;57976;48.174;16.370;2023-05-20T04:15:19;99755.42;;;12.47;100.00
70488;BME280;57976;48.174;16.370;2023-05-20T04:17:29;99760.39;;;12.49;100.00
70488;BME280;57976;48.174;16.370;2023-05-20T04:19:34;99767.06;;;12.51;100.00
70488;BME280;57976;48.174;16.370;2023-05-20T04:21:41;99771.96;;;12.53;100.00
70488;BME280;57976;48.174;16.370;2023-05-20T04:23:46;99778.46;;;12.55;100.00
70488;BME280;57976;48.174;16.370;2023-05-20T04:25:51;99782.17;;;12.56;100.00
70488;BME280;57976;48.174;16.370;2023-05-20T04:27:56;99783.04;;;12.57;100.00
70488;BME280;57976;48.174;16.370;2023-05-20T04:30:01;99786.98;;;12.60;100.00
70488;BME280;57976;48.174;16.370;2023-05-20T04:32:07;99787.73;;;12.60;100.00
70488;BME280;57976;48.174;16.370;2023-05-20T04:34:13;99792.38;;;12.61;100.00
70488;BME280;57976;48.174;16.370;2023-05-20T04:36:18;99794.39;;;12.60;100.00
70488;BME280;57976;48.174;16.370;2023-05-20T04:38:23;99800.77;;;12.59;100.00
70488;BME280;57976;48.174;16.370;2023-05-20T04:40:28;99807.17;;;12.58;100.00
70488;BME280;57976;48.174;16.370;2023-05-20T04:42:34;99803.05;;;12.57;100.00
70488;BME280;57976;48.174;16.370;2023-05-20T04:44:39;99808.56;;;12.57;100.00
70488;BME280;57976;48.174;16.370;2023-05-20T04:46:46;99803.27;;;12.56;100.00
70488;BME280;57976;48.174;16.370;2023-05-20T04:48:51;99796.02;;;12.57;100.00
70488;BME280;57976;48.174;16.370;2023-05-20T04:50:56;99789.73;;;12.64;100.00
70488;BME280;57976;48.174;16.370;2023-05-20T04:53:01;99788.73;;;12.72;100.00
70488;BME280;57976;48.174;16.370;2023-05-20T04:55:11;99782.33;;;12.82;100.00
70488;BME280;57976;48.174;16.370;2023-05-20T04:57:16;99780.67;;;12.87;100.00
70488;BME280;57976;48.174;16.370;2023-05-20T04:59:20;99778.85;;;12.90;100.00
70488;BME280;57976;48.174;16.370;2023-05-20T05:01:25;99777.98;;;12.91;100.00
70488;BME280;57976;48.174;16.370;2023-05-20T05:03:30;99785.64;;;12.94;100.00
70488;BME280;57976;48.174;16.370;2023-05-20T05:05:36;99786.45;;;12.97;100.00
70488;BME280;57976;48.174;16.370;2023-05-20T05:07:41;99788.55;;;12.99;100.00
70488;BME280;57976;48.174;16.370;2023-05-20T05:09:48;99790.00;;;13.01;100.00
70488;BME280;57976;48.174;16.370;2023-05-20T05:11:53;99795.11;;;13.08;100.00
70488;BME280;57976;48.174;16.370;2023-05-20T05:13:59;99791.36;;;13.12;100.00
70488;BME280;57976;48.174;16.370;2023-05-20T05:16:05;99788.48;;;13.18;100.00
70488;BME280;57976;48.174;16.370;2023-05-20T05:18:10;99792.35;;;13.21;100.00
70488;BME280;57976;48.174;16.370;2023-05-20T05:20:16;99795.02;;;13.24;100.00
70488;BME280;57976;48.174;16.370;2023-05-20T05:22:22;99790.20;;;13.30;100.00
70488;BME280;57976;48.174;16.370;2023-05-20T05:24:27;99792.87;;;13.39;100.00
70488;BME280;57976;48.174;16.370;2023-05-20T05:28:39;99784.34;;;13.61;100.00
70488;BME280;57976;48.174;16.370;2023-05-20T05:30:44;99791.22;;;13.70;99.82
70488;BME280;57976;48.174;16.370;2023-05-20T05:32:50;99790.59;;;13.76;99.25
70488;BME280;57976;48.174;16.370;2023-05-20T05:34:55;99789.89;;;13.85;98.71
70488;BME280;57976;48.174;16.370;2023-05-20T05:37:00;99791.27;;;13.97;98.52
70488;BME280;57976;48.174;16.370;2023-05-20T05:39:05;99784.17;;;14.11;97.92
70488;BME280;57976;48.174;16.370;2023-05-20T05:41:10;99780.94;;;14.26;97.04
70488;BME280;57976;48.174;16.370;2023-05-20T05:43:15;99778.20;;;14.39;96.52
70488;BME280;57976;48.174;16.370;2023-05-20T05:45:24;99778.08;;;14.48;95.43
70488;BME280;57976;48.174;16.370;2023-05-20T05:47:29;99777.13;;;14.51;95.04
70488;BME280;57976;48.174;16.370;2023-05-20T05:49:36;99776.00;;;14.50;94.80
70488;BME280;57976;48.174;16.370;2023-05-20T05:51:41;99774.67;;;14.54;94.83
70488;BME280;57976;48.174;16.370;2023-05-20T05:53:46;99770.63;;;14.61;94.88
70488;BME280;57976;48.174;16.370;2023-05-20T05:55:51;99764.27;;;14.67;94.21
70488;BME280;57976;48.174;16.370;2023-05-20T05:57:56;99763.27;;;14.69;93.87
70488;BME280;57976;48.174;16.370;2023-05-20T06:00:07;99766.27;;;14.70;93.97
70488;BME280;57976;48.174;16.370;2023-05-20T06:02:21;99762.75;;;14.72;93.76
70488;BME280;57976;48.174;16.370;2023-05-20T06:04:26;99765.48;;;14.80;93.24
70488;BME280;57976;48.174;16.370;2023-05-20T06:06:33;99767.70;;;14.85;93.39
70488;BME280;57976;48.174;16.370;2023-05-20T06:08:38;99766.70;;;14.96;92.95
70488;BME280;57976;48.174;16.370;2023-05-20T06:10:47;99762.07;;;15.03;92.55
70488;BME280;57976;48.174;16.370;2023-05-20T06:12:52;99760.06;;;15.06;92.06
70488;BME280;57976;48.174;16.370;2023-05-20T06:14:57;99751.70;;;15.10;91.58
70488;BME280;57976;48.174;16.370;2023-05-20T06:17:03;99749.72;;;15.14;91.56
70488;BME280;57976;48.174;16.370;2023-05-20T06:19:08;99748.17;;;15.20;91.37
70488;BME280;57976;48.174;16.370;2023-05-20T06:21:13;99741.33;;;15.29;91.42
70488;BME280;57976;48.174;16.370;2023-05-20T06:23:18;99746.40;;;15.38;91.20
70488;BME280;57976;48.174;16.370;2023-05-20T06:25:30;99747.54;;;15.48;90.19
70488;BME280;57976;48.174;16.370;2023-05-20T06:27:35;99757.29;;;15.51;89.61
70488;BME280;57976;48.174;16.370;2023-05-20T06:29:41;99770.08;;;15.53;89.34
70488;BME280;57976;48.174;16.370;2023-05-20T06:31:47;99768.74;;;15.57;89.13
70488;BME280;57976;48.174;16.370;2023-05-20T06:33:52;99767.50;;;15.62;89.11
70488;BME280;57976;48.174;16.370;2023-05-20T06:35:59;99763.63;;;15.67;89.11
70488;BME280;57976;48.174;16.370;2023-05-20T06:38:04;99764.48;;;15.72;87.68
70488;BME280;57976;48.174;16.370;2023-05-20T06:40:13;99761.77;;;15.77;88.46
70488;BME280;57976;48.174;16.370;2023-05-20T06:42:17;99765.15;;;15.84;87.80
70488;BME280;57976;48.174;16.370;2023-05-20T06:44:25;99765.58;;;15.87;87.41
70488;BME280;57976;48.174;16.370;2023-05-20T06:46:49;99771.11;;;15.91;87.17
70488;BME280;57976;48.174;16.370;2023-05-20T06:48:54;99770.41;;;15.94;87.35
70488;BME280;57976;48.174;16.370;2023-05-20T06:50:59;99765.92;;;15.99;86.94
70488;BME280;57976;48.174;16.370;2023-05-20T06:53:04;99764.45;;;16.02;86.70
70488;BME280;57976;48.174;16.370;2023-05-20T06:55:10;99760.69;;;16.02;86.68
70488;BME280;57976;48.174;16.370;2023-05-20T06:57:16;99758.12;;;16.02;86.80
70488;BME280;57976;48.174;16.370;2023-05-20T06:59:21;99755.89;;;16.06;87.14
70488;BME280;57976;48.174;16.370;2023-05-20T07:01:26;99756.15;;;16.14;86.66
70488;BME280;57976;48.174;16.370;2023-05-20T07:03:31;99759.23;;;16.20;85.38
70488;BME280;57976;48.174;16.370;2023-05-20T07:05:36;99751.02;;;16.25;85.85
70488;BME280;57976;48.174;16.370;2023-05-20T07:07:41;99749.59;;;16.35;85.97
70488;BME280;57976;48.174;16.370;2023-05-20T07:09:46;99751.41;;;16.55;85.71
70488;BME280;57976;48.174;16.370;2023-05-20T07:11:51;99746.84;;;16.66;84.38
70488;BME280;57976;48.174;16.370;2023-05-20T07:13:56;99745.27;;;16.67;84.10
70488;BME280;57976;48.174;16.370;2023-05-20T07:16:02;99741.80;;;16.69;84.05
70488;BME280;57976;48.174;16.370;2023-05-20T07:18:07;99741.19;;;16.72;84.04
70488;BME280;57976;48.174;16.370;2023-05-20T07:20:12;99741.85;;;16.77;84.05
70488;BME280;57976;48.174;16.370;2023-05-20T07:22:17;99737.00;;;16.85;84.34
70488;BME280;57976;48.174;16.370;2023-05-20T07:24:34;99730.36;;;16.97;83.73
70488;BME280;57976;48.174;16.370;2023-05-20T07:26:40;99731.70;;;17.11;83.23
70488;BME280;57976;48.174;16.370;2023-05-20T07:28:45;99731.42;;;17.29;82.89
70488;BME280;57976;48.174;16.370;2023-05-20T07:30:50;99728.89;;;17.45;81.96
70488;BME280;57976;48.174;16.370;2023-05-20T07:33:02;99725.11;;;17.58;82.05
70488;BME280;57976;48.174;16.370;2023-05-20T07:35:08;99723.88;;;17.70;82.01
70488;BME280;57976;48.174;16.370;2023-05-20T07:37:13;99727.77;;;17.82;81.44
70488;BME280;57976;48.174;16.370;2023-05-20T07:39:18;99724.17;;;17.97;81.22
70488;BME280;57976;48.174;16.370;2023-05-20T07:41:23;99727.46;;;18.18;80.64
70488;BME280;57976;48.174;16.370;2023-05-20T07:43:28;99725.39;;;18.33;79.21
70488;BME280;57976;48.174;16.370;2023-05-20T07:45:39;99724.08;;;18.41;79.19
70488;BME280;57976;48.174;16.370;2023-05-20T07:47:44;99726.35;;;18.46;78.44
70488;BME280;57976;48.174;16.370;2023-05-20T07:49:49;99726.63;;;18.50;78.75
70488;BME280;57976;48.174;16.370;2023-05-20T07:51:54;99725.61;;;18.53;77.28
70488;BME280;57976;48.174;16.370;2023-05-20T07:53:58;99723.83;;;18.56;78.32
70488;BME280;57976;48.174;16.370;2023-05-20T07:56:03;99720.70;;;18.65;77.16
70488;BME280;57976;48.174;16.370;2023-05-20T07:58:09;99721.60;;;18.73;77.27
70488;BME280;57976;48.174;16.370;2023-05-20T08:00:14;99720.23;;;18.78;76.98
70488;BME280;57976;48.174;16.370;2023-05-20T08:02:22;99714.29;;;18.87;77.70
70488;BME280;57976;48.174;16.370;2023-05-20T08:04:27;99711.03;;;19.03;77.58
70488;BME280;57976;48.174;16.370;2023-05-20T08:06:32;99708.36;;;19.19;76.02
70488;BME280;57976;48.174;16.370;2023-05-20T08:08:38;99702.38;;;19.27;75.48
70488;BME280;57976;48.174;16.370;2023-05-20T08:10:46;99705.27;;;19.35;74.98
70488;BME280;57976;48.174;16.370;2023-05-20T08:12:51;99707.21;;;19.38;73.95
70488;BME280;57976;48.174;16.370;2023-05-20T08:14:55;99705.19;;;19.39;74.75
70488;BME280;57976;48.174;16.370;2023-05-20T08:17:00;99699.65;;;19.45;74.17
70488;BME280;57976;48.174;16.370;2023-05-20T08:19:05;99699.12;;;19.42;73.91
70488;BME280;57976;48.174;16.370;2023-05-20T08:21:10;99695.52;;;19.36;73.73
70488;BME280;57976;48.174;16.370;2023-05-20T08:23:15;99694.59;;;19.40;75.53
70488;BME280;57976;48.174;16.370;2023-05-20T08:25:20;99693.84;;;19.55;75.49
70488;BME280;57976;48.174;16.370;2023-05-20T08:27:25;99691.14;;;19.71;74.14
70488;BME280;57976;48.174;16.370;2023-05-20T08:29:33;99691.08;;;19.75;73.51
70488;BME280;57976;48.174;16.370;2023-05-20T08:31:37;99689.17;;;19.73;73.12
70488;BME280;57976;48.174;16.370;2023-05-20T08:33:42;99685.98;;;19.71;73.26
70488;BME280;57976;48.174;16.370;2023-05-20T08:35:47;99677.02;;;19.76;74.05
70488;BME280;57976;48.174;16.370;2023-05-20T08:37:52;99677.81;;;19.93;74.13
70488;BME280;57976;48.174;16.370;2023-05-20T08:39:56;99675.39;;;20.07;70.71
70488;BME280;57976;48.174;16.370;2023-05-20T08:42:02;99674.23;;;20.14;72.80
70488;BME280;57976;48.174;16.370;2023-05-20T08:44:08;99665.94;;;20.31;73.32
70488;BME280;57976;48.174;16.370;2023-05-20T08:46:13;99666.66;;;20.49;71.59
70488;BME280;57976;48.174;16.370;2023-05-20T08:48:23;99666.17;;;20.55;70.91
70488;BME280;57976;48.174;16.370;2023-05-20T08:50:29;99665.66;;;20.53;70.29
70488;BME280;57976;48.174;16.370;2023-05-20T08:52:35;99667.90;;;20.55;70.62
70488;BME280;57976;48.174;16.370;2023-05-20T08:54:47;99666.21;;;20.61;70.82
70488;BME280;57976;48.174;16.370;2023-05-20T08:56:52;99665.91;;;20.61;70.21
70488;BME280;57976;48.174;16.370;2023-05-20T08:58:57;99668.45;;;20.62;70.11
70488;BME280;57976;48.174;16.370;2023-05-20T09:01:02;99666.80;;;20.73;69.76
70488;BME280;57976;48.174;16.370;2023-05-20T09:03:07;99663.48;;;20.84;70.17
70488;BME280;57976;48.174;16.370;2023-05-20T09:05:12;99663.55;;;20.92;68.06
70488;BME280;57976;48.174;16.370;2023-05-20T09:07:28;99658.46;;;20.93;69.24
70488;BME280;57976;48.174;16.370;2023-05-20T09:09:34;99650.04;;;21.07;69.92
70488;BME280;57976;48.174;16.370;2023-05-20T09:11:40;99649.73;;;21.20;69.15
70488;BME280;57976;48.174;16.370;2023-05-20T09:13:45;99644.77;;;21.24;68.93
70488;BME280;57976;48.174;16.370;2023-05-20T09:15:50;99640.58;;;21.19;69.00
70488;BME280;57976;48.174;16.370;2023-05-20T09:17:55;99636.70;;;21.23;69.13
70488;BME280;57976;48.174;16.370;2023-05-20T09:20:00;99640.88;;;21.25;67.74
70488;BME280;57976;48.174;16.370;2023-05-20T09:22:05;99640.98;;;21.23;68.43
70488;BME280;57976;48.174;16.370;2023-05-20T09:24:10;99643.95;;;21.23;68.83
70488;BME280;57976;48.174;16.370;2023-05-20T09:26:15;99644.64;;;21.29;68.27
70488;BME280;57976;48.174;16.370;2023-05-20T09:28:23;99644.92;;;21.41;68.69
70488;BME280;57976;48.174;16.370;2023-05-20T09:30:28;99643.09;;;21.53;68.69
70488;BME280;57976;48.174;16.370;2023-05-20T09:32:33;99642.38;;;21.65;67.24
70488;BME280;57976;48.174;16.370;2023-05-20T09:34:39;99640.41;;;21.76;68.00
70488;BME280;57976;48.174;16.370;2023-05-20T09:36:44;99637.13;;;21.81;66.97
70488;BME280;57976;48.174;16.370;2023-05-20T09:38:53;99639.60;;;21.77;66.16
70488;BME280;57976;48.174;16.370;2023-05-20T09:41:02;99635.93;;;21.66;65.83
70488;BME280;57976;48.174;16.370;2023-05-20T09:43:09;99630.66;;;21.53;67.09
70488;BME280;57976;48.174;16.370;2023-05-20T09:45:15;99630.91;;;21.48;66.90
70488;BME280;57976;48.174;16.370;2023-05-20T09:47:21;99627.82;;;21.47;67.66
70488;BME280;57976;48.174;16.370;2023-05-20T09:49:26;99626.30;;;21.48;68.06
70488;BME280;57976;48.174;16.370;2023-05-20T09:51:33;99627.91;;;21.54;68.11
70488;BME280;57976;48.174;16.370;2023-05-20T09:53:38;99625.48;;;21.59;67.16
70488;BME280;57976;48.174;16.370;2023-05-20T09:55:44;99625.75;;;21.58;67.95
70488;BME280;57976;48.174;16.370;2023-05-20T09:57:49;99629.86;;;21.68;68.57
70488;BME280;57976;48.174;16.370;2023-05-20T09:59:55;99626.70;;;21.79;68.06
70488;BME280;57976;48.174;16.370;2023-05-20T10:02:00;99624.39;;;21.91;68.44
70488;BME280;57976;48.174;16.370;2023-05-20T10:04:06;99624.52;;;22.04;67.76
70488;BME280;57976;48.174;16.370;2023-05-20T10:06:31;99614.33;;;22.09;67.56
70488;BME280;57976;48.174;16.370;2023-05-20T10:08:52;99615.15;;;22.16;67.23
70488;BME280;57976;48.174;16.370;2023-05-20T10:11:09;99615.48;;;22.19;66.54
70488;BME280;57976;48.174;16.370;2023-05-20T10:13:23;99616.04;;;22.17;66.38
70488;BME280;57976;48.174;16.370;2023-05-20T10:15:35;99615.31;;;22.13;65.88
70488;BME280;57976;48.174;16.370;2023-05-20T10:17:49;99612.88;;;22.17;65.64
70488;BME280;57976;48.174;16.370;2023-05-20T10:20:01;99605.17;;;22.15;65.88
70488;BME280;57976;48.174;16.370;2023-05-20T10:22:10;99602.73;;;22.19;66.48
70488;BME280;57976;48.174;16.370;2023-05-20T10:24:15;99603.98;;;22.22;66.27
70488;BME280;57976;48.174;16.370;2023-05-20T10:26:20;99601.77;;;22.20;65.33
70488;BME280;57976;48.174;16.370;2023-05-20T10:28:33;99597.46;;;22.14;65.52
70488;BME280;57976;48.174;16.370;2023-05-20T10:30:47;99591.92;;;22.06;65.73
70488;BME280;57976;48.174;16.370;2023-05-20T10:32:54;99592.13;;;22.03;66.06
70488;BME280;57976;48.174;16.370;2023-05-20T10:35:01;99583.17;;;22.05;66.11
70488;BME280;57976;48.174;16.370;2023-05-20T10:37:06;99579.86;;;22.11;66.70
70488;BME280;57976;48.174;16.370;2023-05-20T10:39:15;99580.37;;;22.20;67.11
70488;BME280;57976;48.174;16.370;2023-05-20T10:41:23;99581.73;;;22.34;65.69
70488;BME280;57976;48.174;16.370;2023-05-20T10:43:28;99576.85;;;22.34;65.52
70488;BME280;57976;48.174;16.370;2023-05-20T10:45:33;99579.23;;;22.29;65.80
70488;BME280;57976;48.174;16.370;2023-05-20T10:47:52;99574.23;;;22.27;66.50
70488;BME280;57976;48.174;16.370;2023-05-20T10:49:57;99573.86;;;22.33;65.92
70488;BME280;57976;48.174;16.370;2023-05-20T10:52:02;99572.73;;;22.44;66.63
70488;BME280;57976;48.174;16.370;2023-05-20T10:54:09;99575.27;;;22.52;66.19
70488;BME280;57976;48.174;16.370;2023-05-20T10:56:19;99566.80;;;22.55;66.51
70488;BME280;57976;48.174;16.370;2023-05-20T10:58:25;99565.90;;;22.63;66.68
70488;BME280;57976;48.174;16.370;2023-05-20T11:00:29;99561.70;;;22.72;66.43
70488;BME280;57976;48.174;16.370;2023-05-20T11:02:34;99559.84;;;22.76;66.16
70488;BME280;57976;48.174;16.370;2023-05-20T11:04:43;99558.41;;;22.86;66.51
70488;BME280;57976;48.174;16.370;2023-05-20T11:06:54;99561.81;;;22.99;66.37
70488;BME280;57976;48.174;16.370;2023-05-20T11:09:04;99560.75;;;23.09;65.93
70488;BME280;57976;48.174;16.370;2023-05-20T11:11:13;99552.13;;;23.16;65.35
70488;BME280;57976;48.174;16.370;2023-05-20T11:13:18;99554.83;;;23.23;65.10
70488;BME280;57976;48.174;16.370;2023-05-20T11:15:23;99550.61;;;23.31;64.63
70488;BME280;57976;48.174;16.370;2023-05-20T11:17:28;99552.48;;;23.37;64.08
70488;BME280;57976;48.174;16.370;2023-05-20T11:19:33;99553.98;;;23.53;63.80
70488;BME280;57976;48.174;16.370;2023-05-20T11:21:47;99553.70;;;23.64;62.44
70488;BME280;57976;48.174;16.370;2023-05-20T11:23:53;99547.65;;;23.73;63.44
70488;BME280;57976;48.174;16.370;2023-05-20T11:25:58;99543.98;;;23.87;63.58
70488;BME280;57976;48.174;16.370;2023-05-20T11:28:03;99550.53;;;24.01;61.86
70488;BME280;57976;48.174;16.370;2023-05-20T11:30:09;99553.05;;;23.97;60.62
70488;BME280;57976;48.174;16.370;2023-05-20T11:32:14;99552.91;;;23.95;61.08
70488;BME280;57976;48.174;16.370;2023-05-20T11:34:21;99551.20;;;23.92;60.64
70488;BME280;57976;48.174;16.370;2023-05-20T11:36:30;99547.31;;;23.93;61.24
70488;BME280;57976;48.174;16.370;2023-05-20T11:38:35;99552.52;;;23.99;61.41
70488;BME280;57976;48.174;16.370;2023-05-20T11:40:44;99549.48;;;23.94;61.23
70488;BME280;57976;48.174;16.370;2023-05-20T11:42:55;99550.14;;;23.93;61.50
70488;BME280;57976;48.174;16.370;2023-05-20T11:45:01;99551.92;;;23.97;62.42
70488;BME280;57976;48.174;16.370;2023-05-20T11:47:06;99549.64;;;24.09;61.68
70488;BME280;57976;48.174;16.370;2023-05-20T11:49:13;99542.88;;;24.23;62.29
70488;BME280;57976;48.174;16.370;2023-05-20T11:51:18;99546.61;;;24.41;61.35
70488;BME280;57976;48.174;16.370;2023-05-20T11:53:26;99539.00;;;24.55;58.79
70488;BME280;57976;48.174;16.370;2023-05-20T11:55:32;99539.26;;;24.63;59.71
70488;BME280;57976;48.174;16.370;2023-05-20T11:57:38;99542.82;;;24.76;59.87
70488;BME280;57976;48.174;16.370;2023-05-20T11:59:45;99537.49;;;24.85;58.78
70488;BME280;57976;48.174;16.370;2023-05-20T12:01:50;99535.68;;;24.91;59.08